CST,Max TemperatureF,Mean TemperatureF,Min TemperatureF,Max Dew PointF,MeanDew PointF,Min DewpointF,Max Humidity, Mean Humidity, Min Humidity, Max Sea Level PressureIn, Mean Sea Level PressureIn, Min Sea Level PressureIn, Max VisibilityMiles, Mean VisibilityMiles, Min VisibilityMiles, Max Wind SpeedMPH, Mean Wind SpeedMPH, Max Gust SpeedMPH,PrecipitationIn, CloudCover, Events, WindDirDegrees
2012-11-1,66,53,39,41,36,30,76,58,40,30.01,29.96,29.91,10,8,2,15,7,20,0.00,1,,316
2012-11-2,54,44,34,32,30,28,82,62,41,30.08,30.02,29.96,10,10,9,14,8,20,0.00,0,,74
2012-11-3,55,46,36,33,30,28,76,57,38,30.22,30.15,30.05,10,10,10,12,6,16,0.00,1,,23
2012-11-4,54,46,37,40,35,28,83,67,50,30.24,30.16,30.07,10,9,5,14,7,17,0.12,6,Rain,149
2012-11-5,42,41,39,40,38,37,93,90,86,30.15,30.08,30.01,5,4,1,15,7,20,0.24,8,Rain,82
2012-11-6,55,47,39,40,36,32,92,71,50,30.09,29.99,29.93,10,7,3,28,13,37,T,7,,263
2012-11-7,50,43,36,34,32,30,79,66,52,30.17,30.12,30.02,10,10,10,16,6,22,0.00,4,,8
2012-11-8,61,47,33,38,34,30,89,66,42,30.14,30.02,29.93,10,10,9,17,10,23,0.00,0,Snow,158
2012-11-9,66,55,44,55,46,36,83,71,58,29.93,29.85,29.78,10,10,10,15,8,20,0.00,2,,151
2012-11-10,73,66,59,57,54,48,84,67,49,29.75,29.69,29.63,10,10,10,30,18,38,0.01,1,Rain,182
2012-11-11,67,45,22,55,36,17,100,78,56,30.19,29.84,29.66,10,8,2,26,13,36,1.28,7,Rain-Snow-Thunderstorm,284
2012-11-12,39,30,21,21,18,15,81,63,44,30.43,30.31,30.20,10,10,10,24,11,31,0.00,0,,260
2012-11-13,50,37,24,31,25,17,75,59,42,30.46,30.41,30.35,10,10,10,14,7,18,0.00,0,,173
2012-11-14,56,45,34,31,27,23,82,55,27,30.40,30.34,30.28,10,10,10,16,9,21,0.00,1,,187
2012-11-15,53,45,37,35,31,27,76,61,46,30.42,30.32,30.27,10,10,8,10,6,14,0.00,2,,220
2012-11-16,56,42,27,37,31,25,92,68,43,30.48,30.43,30.39,10,10,7,10,5,13,0.00,0,,101
2012-11-17,58,47,36,35,32,29,82,59,36,30.41,30.35,30.28,10,10,10,20,10,24,0.00,0,,162
2012-11-18,59,49,38,35,31,28,70,55,40,30.29,30.22,30.16,10,10,10,17,9,23,T,2,Rain,164
2012-11-19,61,51,40,45,40,34,83,67,50,30.14,30.08,30.03,10,10,10,20,10,24,T,1,,205
2012-11-20,62,49,36,43,38,34,92,71,49,30.21,30.16,30.07,10,8,5,12,6,15,0.00,0,,295
2012-11-21,70,55,39,43,38,36,86,59,31,30.19,30.09,29.94,10,9,4,23,12,29,0.00,0,,192
2012-11-22,67,51,35,50,39,31,82,62,42,30.19,29.93,29.78,10,10,10,29,15,37,0.00,0,,241
2012-11-23,37,28,18,30,16,12,82,66,49,30.45,30.38,30.19,10,10,10,30,16,37,0.00,2,,312
2012-11-24,36,25,14,22,16,10,80,64,47,30.41,30.18,29.91,10,10,10,20,7,24,0.00,0,,186
2012-11-25,44,36,28,27,25,23,85,67,49,30.14,29.99,29.88,10,10,10,14,7,16,0.00,2,,360
2012-11-26,34,25,15,24,16,6,85,68,51,30.49,30.35,30.15,10,10,10,18,10,24,0.00,4,,9
2012-11-27,35,23,11,16,11,6,80,59,38,30.48,30.37,30.27,10,10,10,16,8,20,0.00,0,,213
2012-11-28,46,34,21,27,22,15,84,63,41,30.43,30.32,30.19,10,10,10,13,7,16,0.00,0,,168
2012-11-29,53,43,32,36,32,27,78,64,50,30.17,30.06,29.99,10,10,10,13,8,17,0.00,0,,178
2012-11-30,53,42,31,36,34,30,92,73,54,30.08,30.04,29.99,10,7,2,10,5,13,0.00,0,,215